Time;durP1;ratioP1;P1;durP2;ratioP2;P2;SDS_P1;SDS_P2;PMS_P1;PMS_P2;Temp;Humidity;BMP_temperature;BMP_pressure;BME280_temperature;BME280_humidity;BME280_pressure;Samples;Min_cycle;Max_cycle;Signal;HPM_P1;HPM_P2
2022/06/06 00:00:23;;;;;;;60.28;30.60;;;;;;;13.75;100.00;101325.06;4890173;29;20036;-83
2022/06/06 00:02:49;;;;;;;60.40;29.30;;;;;;;13.75;100.00;101306.44;4884458;29;20062;-82
2022/06/06 00:05:16;;;;;;;57.08;27.98;;;;;;;13.75;100.00;101301.97;4882319;29;20078;-82
2022/06/06 00:07:42;;;;;;;58.25;29.58;;;;;;;13.76;100.00;101306.38;4911942;29;20040;-82
2022/06/06 00:10:09;;;;;;;52.15;26.65;;;;;;;13.80;100.00;101308.94;4894708;29;20036;-82
2022/06/06 00:12:35;;;;;;;57.88;29.20;;;;;;;13.76;100.00;101303.72;4876133;29;20156;-82
2022/06/06 00:15:02;;;;;;;53.03;26.95;;;;;;;13.76;100.00;101308.16;4875669;29;20032;-82
2022/06/06 00:17:28;;;;;;;51.75;27.10;;;;;;;13.77;100.00;101312.56;4887453;29;20045;-81
2022/06/06 00:19:54;;;;;;;44.72;26.20;;;;;;;13.79;100.00;101309.88;4879566;29;20049;-82
2022/06/06 00:22:19;;;;;;;50.55;25.67;;;;;;;13.79;100.00;101305.41;4897867;29;20523;-82
2022/06/06 00:24:45;;;;;;;47.25;25.73;;;;;;;13.76;100.00;101298.38;4884620;29;20049;-81
2022/06/06 00:27:11;;;;;;;43.63;24.98;;;;;;;13.84;100.00;101302.63;4890432;29;20319;-81
2022/06/06 00:29:36;;;;;;;44.25;25.25;;;;;;;13.83;100.00;101299.09;4892103;29;20048;-81
2022/06/06 00:34:48;;;;;;;47.58;25.05;;;;;;;13.82;100.00;101297.34;4895660;29;20139;-81
2022/06/06 00:37:18;;;;;;;40.33;24.02;;;;;;;13.82;100.00;101294.66;4882240;29;20489;-81
2022/06/06 00:39:44;;;;;;;48.03;24.63;;;;;;;13.83;100.00;101299.09;4907045;29;20048;-82
2022/06/06 00:42:14;;;;;;;48.17;23.58;;;;;;;13.82;100.00;101296.47;4885940;29;20060;-81
2022/06/06 00:44:40;;;;;;;45.50;25.52;;;;;;;13.82;100.00;101292.00;4895598;29;20072;-81
2022/06/06 00:47:17;;;;;;;45.53;25.35;;;;;;;13.82;100.00;101292.00;4895208;29;20044;-82
2022/06/06 00:49:51;;;;;;;42.03;24.27;;;;;;;13.80;100.00;101285.88;4897480;29;20051;-82
2022/06/06 00:52:23;;;;;;;50.17;25.65;;;;;;;13.84;100.00;101297.31;4898236;29;20235;-81
2022/06/06 00:54:53;;;;;;;43.55;25.20;;;;;;;13.84;100.00;101297.31;4909550;29;20373;-82
2022/06/06 00:57:24;;;;;;;47.75;24.33;;;;;;;13.81;100.00;101290.28;4871584;29;20044;-83
2022/06/06 00:59:52;;;;;;;48.55;26.25;;;;;;;13.80;100.00;101296.53;4900993;29;20052;-83
2022/06/06 01:02:18;;;;;;;44.70;24.98;;;;;;;13.76;100.00;101295.72;4904431;29;20119;-84
2022/06/06 01:04:45;;;;;;;45.55;24.77;;;;;;;13.76;100.00;101289.53;4900288;29;20051;-84
2022/06/06 01:07:11;;;;;;;48.45;26.17;;;;;;;13.70;100.00;101282.59;4915545;29;20400;-83
2022/06/06 01:09:38;;;;;;;47.88;26.15;;;;;;;13.74;100.00;101291.38;4899245;29;20451;-84
2022/06/06 01:12:09;;;;;;;45.88;26.08;;;;;;;13.73;100.00;101284.31;4885267;29;20044;-85
2022/06/06 01:14:42;;;;;;;43.22;25.83;;;;;;;13.70;100.00;101276.41;4881408;29;20051;-85
2022/06/06 01:17:40;;;;;;;43.72;25.45;;;;;;;13.78;100.00;101293.03;4881627;29;20057;-86
2022/06/06 01:20:47;;;;;;;45.40;24.48;;;;;;;13.78;100.00;101287.72;4881666;29;20411;-86
2022/06/06 01:23:34;;;;;;;46.10;25.33;;;;;;;13.79;100.00;101294.78;4898690;29;20045;-87
2022/06/06 01:26:41;;;;;;;42.72;24.50;;;;;;;13.77;100.00;101292.16;4896869;29;20110;-87
2022/06/06 01:29:34;;;;;;;48.63;25.65;;;;;;;13.78;100.00;101285.06;4889280;29;20190;-86
2022/06/06 01:32:10;;;;;;;50.75;27.88;;;;;;;13.81;100.00;101287.63;4878372;29;20061;-87
2022/06/06 01:34:39;;;;;;;52.45;28.13;;;;;;;13.79;100.00;101291.25;4900118;29;20119;-87
2022/06/06 01:37:24;;;;;;;53.58;30.40;;;;;;;13.81;100.00;101290.28;4899409;29;20032;-87
2022/06/06 01:39:50;;;;;;;53.58;31.25;;;;;;;13.82;100.00;101288.47;4904723;29;20501;-85
2022/06/06 01:42:29;;;;;;;53.90;29.33;;;;;;;13.78;100.00;101279.72;4893981;29;20037;-86
2022/06/06 01:45:02;;;;;;;55.78;31.63;;;;;;;13.79;100.00;101277.94;4901850;29;20049;-85
2022/06/06 01:47:36;;;;;;;57.53;32.28;;;;;;;13.81;100.00;101286.75;4913697;29;20044;-86
2022/06/06 01:50:04;;;;;;;65.32;34.95;;;;;;;13.85;100.00;101289.28;4899071;29;20415;-86
2022/06/06 01:52:29;;;;;;;72.25;37.08;;;;;;;13.85;100.00;101288.44;4896197;29;20564;-87
2022/06/06 01:54:57;;;;;;;69.25;37.85;;;;;;;13.84;100.00;101291.97;4880642;29;20040;-87
2022/06/06 01:57:24;;;;;;;72.20;36.45;;;;;;;13.79;100.00;101278.78;4895042;29;20104;-87
2022/06/06 01:59:52;;;;;;;70.13;37.55;;;;;;;13.81;100.00;101271.66;4916537;29;20147;-86
2022/06/06 02:02:18;;;;;;;74.13;39.47;;;;;;;13.80;100.00;101274.34;4887727;29;20055;-86
2022/06/06 02:04:44;;;;;;;75.00;40.92;;;;;;;13.81;100.00;101279.63;4916163;29;20044;-86
2022/06/06 02:07:10;;;;;;;75.35;39.70;;;;;;;13.88;100.00;101283.00;4903713;29;20040;-86
2022/06/06 02:09:36;;;;;;;71.55;38.28;;;;;;;13.84;100.00;101270.69;4879544;29;20045;-85
2022/06/06 02:12:02;;;;;;;69.88;37.97;;;;;;;13.83;100.00;101263.63;4894765;29;20381;-86
2022/06/06 02:14:29;;;;;;;76.53;42.63;;;;;;;13.83;100.00;101258.31;4885770;29;20390;-85
2022/06/06 02:16:54;;;;;;;73.35;38.05;;;;;;;13.88;100.00;101259.91;4904799;29;20040;-87
2022/06/06 02:19:20;;;;;;;74.03;38.83;;;;;;;13.89;100.00;101263.44;4890123;29;20040;-86
2022/06/06 02:21:46;;;;;;;72.78;41.53;;;;;;;13.91;100.00;101259.81;4898976;29;20385;-86
2022/06/06 02:24:12;;;;;;;72.97;39.03;;;;;;;13.91;100.00;101256.28;4888245;29;20036;-87
2022/06/06 02:26:38;;;;;;;76.57;41.53;;;;;;;13.86;100.00;101251.09;4883109;29;20119;-87
2022/06/06 02:29:05;;;;;;;73.82;41.72;;;;;;;13.90;100.00;101246.56;4915071;29;20440;-87
2022/06/06 02:31:37;;;;;;;82.47;43.83;;;;;;;13.94;100.00;101256.19;4885361;29;20040;-87
2022/06/06 02:34:08;;;;;;;71.38;40.50;;;;;;;13.92;100.00;101250.03;4914740;29;20050;-86
2022/06/06 02:36:34;;;;;;;76.90;42.85;;;;;;;13.93;100.00;101257.97;4915490;29;20080;-86
2022/06/06 02:39:00;;;;;;;73.00;41.33;;;;;;;13.90;100.00;101250.09;4911471;29;20076;-86
2022/06/06 02:41:28;;;;;;;69.78;41.55;;;;;;;13.93;100.00;101263.31;4896723;29;20095;-87
2022/06/06 02:43:56;;;;;;;66.47;39.63;;;;;;;13.91;100.00;101249.16;4906990;29;20106;-86
2022/06/06 02:46:22;;;;;;;71.65;41.58;;;;;;;13.95;100.00;101256.16;4911422;29;20052;-86
2022/06/06 02:48:48;;;;;;;71.88;38.53;;;;;;;13.89;100.00;101258.13;4899346;29;20123;-84
2022/06/06 02:51:13;;;;;;;72.95;38.78;;;;;;;13.91;100.00;101251.81;4889046;29;20132;-86
2022/06/06 02:53:40;;;;;;;67.45;39.55;;;;;;;13.87;100.00;101255.50;4912802;29;20055;-85
2022/06/06 02:56:05;;;;;;;71.97;40.53;;;;;;;13.92;100.00;101264.25;4898491;29;20048;-86
2022/06/06 02:58:31;;;;;;;75.80;41.67;;;;;;;13.89;100.00;101253.66;4898152;29;20587;-86
2022/06/06 03:01:04;;;;;;;73.40;38.67;;;;;;;13.84;100.00;101244.94;4896377;29;20035;-87
2022/06/06 03:03:30;;;;;;;79.40;43.33;;;;;;;13.81;100.00;101250.34;4891751;29;20055;-86
2022/06/06 03:06:05;;;;;;;85.65;41.40;;;;;;;13.86;100.00;101261.72;4885014;29;20040;-85
2022/06/06 03:08:41;;;;;;;76.00;41.75;;;;;;;13.83;100.00;101266.28;4914323;29;20048;-86
2022/06/06 03:11:37;;;;;;;78.13;42.55;;;;;;;13.84;100.00;101260.91;4903287;29;20048;-85
2022/06/06 03:14:33;;;;;;;74.90;40.10;;;;;;;13.82;100.00;101256.53;4898134;29;20040;-85
2022/06/06 03:23:46;;;;;;;75.25;40.80;;;;;;;13.76;100.00;101260.25;4914612;29;20170;-85
2022/06/06 03:26:40;;;;;;;82.90;41.33;;;;;;;13.75;100.00;101266.50;4914196;29;20051;-85
2022/06/06 03:29:35;;;;;;;78.47;39.45;;;;;;;13.71;100.00;101273.69;4894470;29;20147;-85
2022/06/06 03:32:03;;;;;;;80.68;40.40;;;;;;;13.70;100.00;101277.28;4913264;29;20036;-84
2022/06/06 03:34:45;;;;;;;75.07;37.58;;;;;;;13.69;100.00;101270.19;4913911;29;20108;-86
2022/06/06 03:37:17;;;;;;;71.25;38.17;;;;;;;13.63;100.00;101267.72;4913397;29;20139;-85
2022/06/06 03:40:09;;;;;;;70.85;38.05;;;;;;;13.65;100.00;101272.97;4897982;29;20511;-84
2022/06/06 03:42:44;;;;;;;67.50;36.10;;;;;;;13.63;100.00;101278.38;4893351;29;20069;-86
2022/06/06 03:45:24;;;;;;;67.32;38.63;;;;;;;13.61;100.00;101271.34;4905812;29;20493;-85
2022/06/06 03:48:23;;;;;;;68.07;36.47;;;;;;;13.62;100.00;101271.28;4898039;29;20040;-85
2022/06/06 03:51:13;;;;;;;68.90;35.22;;;;;;;13.59;100.00;101271.38;4899323;29;20040;-85
2022/06/06 03:54:16;;;;;;;67.13;37.13;;;;;;;13.57;100.00;101275.84;4913135;29;20070;-85
2022/06/06 03:56:50;;;;;;;62.83;33.85;;;;;;;13.54;100.00;101267.97;4913371;29;20099;-83
2022/06/06 03:59:19;;;;;;;64.38;33.75;;;;;;;13.51;100.00;101278.69;4913449;29;20096;-84
2022/06/06 04:01:46;;;;;;;65.15;35.55;;;;;;;13.45;100.00;101269.09;4885857;29;20071;-85
2022/06/06 04:04:14;;;;;;;62.58;33.63;;;;;;;13.45;100.00;101279.75;4879587;29;20045;-85
2022/06/06 04:06:39;;;;;;;57.03;32.03;;;;;;;13.46;100.00;101280.63;4894821;29;20366;-85
2022/06/06 04:09:05;;;;;;;52.28;32.78;;;;;;;13.43;100.00;101281.56;4899800;29;20051;-83
2022/06/06 04:11:30;;;;;;;59.17;30.83;;;;;;;13.43;100.00;101284.22;4880472;29;20059;-84
2022/06/06 04:13:59;;;;;;;49.70;28.95;;;;;;;13.47;100.00;101293.84;4917307;29;20222;-84
2022/06/06 04:16:43;;;;;;;55.50;30.45;;;;;;;13.44;100.00;101293.06;4900733;29;20062;-84
2022/06/06 04:19:27;;;;;;;54.00;28.58;;;;;;;13.39;100.00;101297.66;4901283;29;20048;-84
2022/06/06 04:22:11;;;;;;;47.05;27.73;;;;;;;13.39;100.00;101292.31;4866141;29;20060;-86
2022/06/06 04:24:50;;;;;;;47.05;28.70;;;;;;;13.39;100.00;101302.97;4895434;29;20104;-84
2022/06/06 04:27:37;;;;;;;46.17;27.08;;;;;;;13.37;100.00;101305.66;4893262;29;20151;-84
2022/06/06 04:30:44;;;;;;;48.92;25.95;;;;;;;13.32;100.00;101299.59;4894953;29;20076;-85
2022/06/06 04:33:29;;;;;;;37.95;22.38;;;;;;;13.29;99.93;101305.00;4873799;29;20139;-84
2022/06/06 04:36:07;;;;;;;38.47;23.15;;;;;;;13.20;98.60;101308.72;4916616;29;20090;-84
2022/06/06 04:39:14;;;;;;;37.58;22.90;;;;;;;13.18;98.55;101302.59;4916021;29;20083;-84
2022/06/06 04:42:05;;;;;;;36.08;21.70;;;;;;;13.16;98.41;101315.03;4860484;29;20091;-84
2022/06/06 04:45:01;;;;;;;42.35;22.52;;;;;;;13.15;98.41;101307.94;4886380;29;20072;-83
2022/06/06 04:47:35;;;;;;;36.40;21.80;;;;;;;13.00;98.35;101311.88;4897358;29;20123;-83
2022/06/06 04:50:07;;;;;;;36.72;22.33;;;;;;;13.01;98.05;101315.44;4884549;29;20080;-83
2022/06/06 04:52:34;;;;;;;40.15;24.23;;;;;;;12.90;97.56;101313.88;4872618;29;20037;-84
2022/06/06 04:55:02;;;;;;;33.47;21.98;;;;;;;12.89;98.12;101319.25;4869128;29;20509;-83
2022/06/06 04:57:30;;;;;;;36.55;23.00;;;;;;;12.87;98.37;101315.75;4865373;29;20044;-83
2022/06/06 04:59:58;;;;;;;37.80;23.73;;;;;;;12.89;98.19;101313.94;4898318;29;20044;-84
2022/06/06 05:02:25;;;;;;;34.88;23.25;;;;;;;12.91;98.11;101323.63;4888427;29;20127;-83
2022/06/06 05:04:51;;;;;;;37.40;24.00;;;;;;;12.92;97.53;101316.50;4887485;29;20056;-83
2022/06/06 05:07:21;;;;;;;38.97;23.15;;;;;;;12.94;97.74;101308.50;4862142;29;20045;-83
2022/06/06 05:10:18;;;;;;;35.63;22.98;;;;;;;13.01;97.74;101315.44;4890975;29;20191;-83
2022/06/06 05:13:12;;;;;;;36.10;24.80;;;;;;;12.99;96.06;101319.91;4873850;29;20410;-83
2022/06/06 05:16:00;;;;;;;34.13;22.40;;;;;;;13.00;95.53;101314.53;4886898;29;20053;-82
2022/06/06 05:18:57;;;;;;;34.05;24.75;;;;;;;13.03;94.93;101319.78;4884187;29;20509;-82
2022/06/06 05:21:49;;;;;;;32.20;22.83;;;;;;;13.00;94.25;101319.84;4896114;29;20063;-81
2022/06/06 05:24:32;;;;;;;35.65;24.70;;;;;;;12.96;94.79;101315.53;4885679;29;20132;-83
2022/06/06 05:27:35;;;;;;;34.13;23.77;;;;;;;12.97;95.66;101319.06;4870534;29;20044;-82
2022/06/06 05:30:15;;;;;;;33.45;23.85;;;;;;;12.98;94.34;101320.78;4896234;29;20086;-82
2022/06/06 05:33:15;;;;;;;35.80;23.52;;;;;;;13.02;94.77;101325.13;4881066;29;20036;-82
2022/06/06 05:35:52;;;;;;;34.20;24.30;;;;;;;13.07;93.14;101324.09;4896840;29;20071;-83
2022/06/06 05:38:42;;;;;;;29.52;21.90;;;;;;;13.09;92.93;101329.41;4896364;29;20135;-82
2022/06/06 05:41:40;;;;;;;33.15;23.70;;;;;;;13.12;92.45;101330.19;4870492;29;20523;-81
2022/06/06 05:44:18;;;;;;;30.65;22.25;;;;;;;13.08;93.57;101325.88;4871658;29;20079;-82
2022/06/06 05:47:06;;;;;;;29.88;20.75;;;;;;;13.11;92.95;101335.56;4900815;29;20051;-82
2022/06/06 05:49:52;;;;;;;29.17;20.92;;;;;;;13.10;92.34;101341.75;4895871;29;20032;-82
2022/06/06 05:52:24;;;;;;;23.42;19.73;;;;;;;13.09;90.69;101340.91;4897787;29;20043;-81
2022/06/06 05:55:02;;;;;;;24.33;17.38;;;;;;;13.13;90.86;101341.72;4911543;29;20052;-82
2022/06/06 05:57:39;;;;;;;25.23;17.58;;;;;;;13.08;89.81;101339.16;4908863;29;20047;-82
2022/06/06 06:00:16;;;;;;;23.05;16.65;;;;;;;13.10;90.37;101336.44;4891980;29;20048;-81
2022/06/06 06:02:48;;;;;;;21.73;16.15;;;;;;;13.05;90.84;101333.91;4883041;29;20492;-81
2022/06/06 06:05:21;;;;;;;21.67;17.45;;;;;;;13.13;91.29;101331.06;4898801;29;20079;-81
2022/06/06 06:08:21;;;;;;;23.42;17.48;;;;;;;13.21;91.74;101334.41;4889981;29;20048;-81
2022/06/06 06:10:57;;;;;;;26.75;15.07;;;;;;;13.31;90.40;101337.75;4879975;29;20045;-81
2022/06/06 06:13:32;;;;;;;24.60;14.98;;;;;;;13.33;89.06;101338.59;4895492;29;20441;-80
2022/06/06 06:16:00;;;;;;;18.80;14.10;;;;;;;13.40;89.74;101334.88;4895323;29;20140;-81
2022/06/06 06:18:35;;;;;;;18.45;13.43;;;;;;;13.49;88.67;101339.91;4895122;29;20087;-81
2022/06/06 06:21:04;;;;;;;18.35;13.13;;;;;;;13.55;87.24;101344.25;4891998;29;20063;-82
2022/06/06 06:23:34;;;;;;;19.10;12.63;;;;;;;13.67;88.90;101348.34;4908984;29;20103;-81
2022/06/06 06:26:03;;;;;;;16.83;11.43;;;;;;;13.69;86.33;101346.50;4903794;29;20556;-82
2022/06/06 06:28:32;;;;;;;17.52;12.02;;;;;;;13.76;86.42;101348.97;4914157;29;20108;-81
2022/06/06 06:31:12;;;;;;;18.23;11.43;;;;;;;13.80;86.89;101349.78;4897935;29;20036;-80
2022/06/06 06:33:55;;;;;;;16.77;10.85;;;;;;;13.82;85.68;101363.03;4914145;29;20108;-81
2022/06/06 06:36:40;;;;;;;18.55;11.90;;;;;;;13.85;87.46;101362.97;4898190;29;20055;-81
2022/06/06 06:39:19;;;;;;;20.10;11.02;;;;;;;13.95;85.86;101370.66;4868610;29;20048;-81
2022/06/06 06:41:45;;;;;;;18.40;11.93;;;;;;;14.02;87.24;101374.03;4896582;29;20056;-81
2022/06/06 06:44:29;;;;;;;12.55;9.43;;;;;;;14.09;85.66;101374.72;4905912;29;20512;-80
2022/06/06 06:47:10;;;;;;;14.50;9.90;;;;;;;14.08;84.16;101383.63;4906320;29;20519;-80
2022/06/06 06:49:47;;;;;;;11.68;8.20;;;;;;;14.12;84.02;101377.28;4905071;29;20175;-80
2022/06/06 06:52:19;;;;;;;14.27;8.27;;;;;;;14.31;84.28;101382.97;4911946;29;20106;-81
2022/06/06 06:55:01;;;;;;;11.30;7.10;;;;;;;14.32;82.46;101384.72;4903480;29;20085;-81
2022/06/06 06:57:53;;;;;;;10.32;7.03;;;;;;;14.40;81.24;101378.25;4879235;29;20036;-81
2022/06/06 07:00:22;;;;;;;11.82;7.00;;;;;;;14.47;80.59;101376.28;4908834;29;20388;-80
2022/06/06 07:08:43;;;;;;;12.52;6.50;;;;;;;14.50;79.11;101377.97;4907264;29;20471;-80
2022/06/06 07:11:09;;;;;;;12.40;6.60;;;;;;;14.55;78.99;101378.75;4903193;29;20044;-81
2022/06/06 07:13:43;;;;;;;12.05;5.70;;;;;;;14.39;78.31;101384.50;4913895;29;20047;-79
2022/06/06 07:16:20;;;;;;;7.95;5.03;;;;;;;14.39;78.53;101384.50;4897561;29;20099;-79
2022/06/06 07:18:50;;;;;;;8.20;4.57;;;;;;;14.54;77.45;101383.22;4913905;29;20482;-79
2022/06/06 07:21:18;;;;;;;6.90;4.22;;;;;;;14.67;78.08;101377.53;4913239;29;20082;-80
2022/06/06 07:23:48;;;;;;;6.72;4.15;;;;;;;14.66;75.25;101375.75;4897638;29;20617;-80
2022/06/06 07:26:14;;;;;;;7.82;4.13;;;;;;;14.77;77.26;101378.97;4900152;29;20040;-80
2022/06/06 07:28:40;;;;;;;9.20;3.65;;;;;;;14.90;76.81;101385.66;4884070;29;20092;-79
2022/06/06 07:31:51;;;;;;;9.00;3.90;;;;;;;15.03;76.07;101391.47;4894507;29;20048;-79
2022/06/06 07:34:57;;;;;;;6.17;3.40;;;;;;;15.09;76.41;101387.78;4864343;29;20041;-80
2022/06/06 07:37:47;;;;;;;6.95;3.40;;;;;;;15.07;74.56;101384.28;4901881;29;20368;-80
2022/06/06 07:40:28;;;;;;;6.20;3.30;;;;;;;15.02;74.98;101381.75;4913018;29;20507;-79
2022/06/06 07:43:19;;;;;;;7.93;3.08;;;;;;;15.02;73.90;101387.09;4908309;29;20501;-81
2022/06/06 07:45:54;;;;;;;6.57;3.10;;;;;;;15.16;72.32;101397.31;4890125;29;20045;-80
2022/06/06 07:48:50;;;;;;;6.25;2.85;;;;;;;15.24;72.61;101403.28;4911766;29;20115;-78
2022/06/06 07:51:20;;;;;;;5.35;2.80;;;;;;;15.18;69.81;101404.34;4882774;29;20115;-79
2022/06/06 07:53:59;;;;;;;7.80;3.05;;;;;;;15.08;69.72;101402.88;4914241;29;20131;-79
2022/06/06 07:56:37;;;;;;;7.75;3.17;;;;;;;14.98;72.26;101401.44;4901405;29;20509;-79
2022/06/06 07:59:25;;;;;;;5.75;2.88;;;;;;;14.96;72.84;101405.94;4887949;29;20074;-79
2022/06/06 08:02:11;;;;;;;4.47;2.75;;;;;;;14.95;72.68;101406.88;4891670;29;20148;-80
2022/06/06 08:04:58;;;;;;;4.75;2.88;;;;;;;14.89;72.45;101399.94;4909259;29;20056;-80
2022/06/06 08:07:45;;;;;;;8.20;2.83;;;;;;;14.91;72.68;101403.44;4898479;29;20044;-80
2022/06/06 08:10:29;;;;;;;6.18;2.58;;;;;;;14.90;71.10;101403.47;4892537;29;20097;-79
2022/06/06 08:12:55;;;;;;;3.10;2.22;;;;;;;14.77;70.67;101405.63;4911713;29;20048;-80
2022/06/06 08:15:27;;;;;;;6.43;2.30;;;;;;;14.66;71.06;101400.59;4908928;29;20140;-80
2022/06/06 08:17:58;;;;;;;7.70;2.50;;;;;;;14.51;71.69;101404.56;4899157;29;20120;-81
2022/06/06 08:20:30;;;;;;;5.10;2.55;;;;;;;14.45;72.54;101399.44;4909687;29;20055;-80
2022/06/06 08:23:01;;;;;;;4.68;2.83;;;;;;;14.40;72.34;101404.88;4913183;29;20040;-79
2022/06/06 08:25:29;;;;;;;5.28;2.45;;;;;;;14.37;71.12;101399.66;4909467;29;20049;-79
2022/06/06 08:27:56;;;;;;;4.63;2.45;;;;;;;14.35;72.83;101404.16;4912289;29;20472;-80
2022/06/06 08:30:23;;;;;;;3.45;2.22;;;;;;;14.37;71.32;101393.47;4891870;29;20072;-78
2022/06/06 08:32:49;;;;;;;7.25;2.95;;;;;;;14.37;72.53;101396.13;4889415;29;20116;-79
2022/06/06 08:35:16;;;;;;;5.38;2.50;;;;;;;14.48;72.89;101387.81;4895666;29;20076;-80
2022/06/06 08:38:18;;;;;;;7.40;2.60;;;;;;;14.79;72.29;101383.34;4916547;29;20055;-79
2022/06/06 08:40:44;;;;;;;8.20;3.08;;;;;;;15.02;71.71;101392.41;4885925;29;20053;-79
2022/06/06 08:43:21;;;;;;;5.28;3.00;;;;;;;15.08;71.86;101388.69;4895556;29;20058;-80
2022/06/06 08:46:21;;;;;;;9.65;3.10;;;;;;;15.38;70.79;101374.34;4866879;29;20065;-79
2022/06/06 08:50:44;;;;;;;7.07;2.85;;;;;;;15.36;70.40;101380.66;4893541;29;20116;-79
2022/06/06 08:52:11;;;;;;;6.15;2.40;;;;;;;15.21;70.04;101374.03;4894786;29;20058;-79
2022/06/06 08:54:52;;;;;;;8.35;2.88;;;;;;;15.10;70.78;101379.69;4887479;29;20038;-79
2022/06/06 08:58:03;;;;;;;6.85;2.70;;;;;;;15.03;71.17;101371.03;4879931;29;20083;-80
2022/06/06 09:00:55;;;;;;;5.90;2.60;;;;;;;15.27;71.25;101371.16;4848086;29;20504;-80
2022/06/06 09:03:59;;;;;;;3.67;2.50;;;;;;;15.67;70.30;101376.00;4870843;29;20036;-79
2022/06/06 09:06:46;;;;;;;5.22;2.63;;;;;;;16.12;69.48;101375.38;4852167;29;20148;-79
2022/06/06 09:09:30;;;;;;;6.53;2.58;;;;;;;16.42;66.51;101377.81;4895018;29;20084;-79
2022/06/06 09:12:27;;;;;;;3.20;1.80;;;;;;;16.45;65.97;101377.69;4882203;29;20165;-79
2022/06/06 09:15:12;;;;;;;2.28;1.40;;;;;;;16.27;64.81;101379.28;4892391;29;20056;-79
2022/06/06 09:18:13;;;;;;;3.78;1.88;;;;;;;16.13;65.99;101377.09;4890777;29;20536;-78
2022/06/06 09:21:16;;;;;;;8.55;2.15;;;;;;;16.22;66.00;101370.56;4887959;29;20059;-78
2022/06/06 09:24:18;;;;;;;9.05;2.70;;;;;;;16.22;66.52;101361.63;4885874;29;20052;-79
2022/06/06 09:27:11;;;;;;;7.15;2.83;;;;;;;16.21;66.47;101373.28;4896408;29;20132;-79
2022/06/06 09:29:59;;;;;;;8.30;3.58;;;;;;;16.06;65.39;101367.56;4896772;29;20059;-78
2022/06/06 09:32:30;;;;;;;13.18;4.70;;;;;;;16.07;67.42;101360.41;4877151;29;20033;-79
2022/06/06 09:35:14;;;;;;;7.20;3.75;;;;;;;16.28;65.61;101345.41;4896305;29;20442;-79
2022/06/06 09:37:53;;;;;;;9.05;3.90;;;;;;;16.19;67.26;101348.41;4880948;29;20063;-78
2022/06/06 09:40:32;;;;;;;8.93;4.28;;;;;;;16.45;67.53;101344.75;4883504;29;20041;-79
2022/06/06 09:43:08;;;;;;;5.57;3.05;;;;;;;16.82;65.21;101338.00;4879301;29;20187;-79
2022/06/06 09:46:12;;;;;;;4.68;2.63;;;;;;;17.09;62.11;101339.56;4907143;29;20052;-78
2022/06/06 09:49:11;;;;;;;5.03;2.42;;;;;;;17.31;61.50;101336.88;4889913;29;20143;-79
2022/06/06 09:51:49;;;;;;;6.05;2.45;;;;;;;17.50;59.32;101346.78;4896188;29;20049;-78
2022/06/06 10:01:08;;;;;;;;;;;;;;;17.87;57.36;101347.91;4830968;29;20331;-79
2022/06/06 10:03:51;;;;;;;6.78;2.00;;;;;;;17.89;57.69;101324.59;4845350;29;19939;-81
2022/06/06 10:06:42;;;;;;;5.53;2.17;;;;;;;18.06;58.74;101327.38;4896958;29;20063;-79
2022/06/06 10:09:17;;;;;;;5.13;2.15;;;;;;;18.20;55.90;101338.34;4901466;29;20397;-79
2022/06/06 10:12:17;;;;;;;3.50;1.58;;;;;;;18.19;57.26;101314.28;4904086;29;20126;-77
2022/06/06 10:14:58;;;;;;;3.92;1.50;;;;;;;18.30;56.34;101317.34;4907907;29;20044;-77
2022/06/06 10:17:52;;;;;;;3.65;1.65;;;;;;;18.59;56.52;101307.91;4903703;29;20053;-78
2022/06/06 10:20:31;;;;;;;2.53;1.60;;;;;;;18.64;55.36;101316.63;4896880;29;20363;-78
2022/06/06 10:23:06;;;;;;;4.97;1.70;;;;;;;18.56;55.20;101312.56;4909605;29;20369;-79
2022/06/06 10:26:14;;;;;;;3.85;2.00;;;;;;;18.54;55.99;101312.63;4906482;29;20485;-78
2022/06/06 10:28:50;;;;;;;5.22;1.42;;;;;;;18.72;53.05;101304.63;4884054;29;20122;-78
2022/06/06 10:31:22;;;;;;;5.50;1.90;;;;;;;18.52;54.16;101306.47;4914435;29;20240;-79
2022/06/06 10:34:21;;;;;;;6.55;1.35;;;;;;;18.54;54.18;101312.63;4889770;29;20122;-78
2022/06/06 10:37:06;;;;;;;3.15;1.20;;;;;;;18.40;54.30;101307.06;4914878;29;20059;-78
2022/06/06 10:39:56;;;;;;;6.10;1.25;;;;;;;18.16;54.38;101306.38;4914157;29;20036;-78
2022/06/06 10:42:52;;;;;;;2.35;1.15;;;;;;;18.11;55.23;101311.97;4888459;29;20040;-78
2022/06/06 10:45:27;;;;;;;4.10;1.20;;;;;;;18.15;55.13;101304.63;4905404;29;20048;-77
2022/06/06 10:48:05;;;;;;;2.72;1.35;;;;;;;18.54;55.98;101307.25;4904121;29;20056;-79
2022/06/06 10:54:02;;;;;;;5.78;1.90;;;;;;;18.37;52.49;101320.59;4909395;29;20123;-78
2022/06/06 10:56:49;;;;;;;5.28;1.20;;;;;;;18.05;53.63;101309.53;4913462;29;20052;-78
2022/06/06 10:59:23;;;;;;;1.98;0.98;;;;;;;18.04;54.00;101314.03;4913311;29;20052;-78
2022/06/06 11:01:55;;;;;;;4.45;1.13;;;;;;;18.25;54.04;101325.59;4903338;29;20055;-78
2022/06/06 11:05:22;;;;;;;4.60;1.30;;;;;;;18.48;53.99;101320.97;4913120;29;20096;-78
2022/06/06 11:08:25;;;;;;;5.43;1.33;;;;;;;18.64;53.35;101308.59;4844116;29;20048;-79
2022/06/06 11:11:12;;;;;;;2.17;1.15;;;;;;;18.85;53.40;101300.47;4903795;29;20520;-78
2022/06/06 11:13:46;;;;;;;2.03;1.15;;;;;;;19.15;53.05;101298.06;4904105;29;20127;-78
2022/06/06 11:16:34;;;;;;;5.97;1.50;;;;;;;19.28;53.02;101291.09;4914555;29;20518;-78
2022/06/06 11:19:18;;;;;;;4.72;1.50;;;;;;;19.47;53.12;101287.47;4914968;29;20047;-78
2022/06/06 11:22:21;;;;;;;2.33;1.25;;;;;;;19.74;51.69;101279.81;4912833;29;20044;-79
2022/06/06 11:25:06;;;;;;;3.88;1.48;;;;;;;19.85;51.07;101282.78;4907552;29;20106;-78
2022/06/06 11:28:23;;;;;;;5.22;1.33;;;;;;;20.30;53.18;101278.56;4914434;29;20374;-78
2022/06/06 11:31:11;;;;;;;4.75;1.40;;;;;;;20.44;51.19;101284.97;4891237;29;20040;-78
2022/06/06 11:34:04;;;;;;;3.47;1.40;;;;;;;20.41;50.70;101273.44;4912694;29;20036;-79
2022/06/06 11:37:01;;;;;;;2.40;1.02;;;;;;;20.36;49.34;101285.41;4884078;29;20135;-79
2022/06/06 11:39:45;;;;;;;5.13;1.35;;;;;;;20.29;48.77;101276.81;4914334;29;20052;-78
2022/06/06 11:42:35;;;;;;;7.50;1.75;;;;;;;20.27;49.87;101281.41;4913073;29;20059;-80
2022/06/06 11:45:22;;;;;;;4.40;1.73;;;;;;;19.90;49.60;101275.34;4901478;29;20064;-79
2022/06/06 11:47:51;;;;;;;3.33;1.30;;;;;;;19.40;50.08;101278.88;4904242;29;20044;-79
2022/06/06 11:50:54;;;;;;;3.72;1.10;;;;;;;19.09;51.06;101293.00;4909193;29;20439;-78
2022/06/06 11:53:46;;;;;;;2.53;1.20;;;;;;;18.55;52.41;101290.25;4913074;29;20064;-79
2022/06/06 11:56:23;;;;;;;6.72;1.23;;;;;;;18.22;53.33;101308.78;4878982;29;20044;-78
2022/06/06 11:59:06;;;;;;;3.88;1.00;;;;;;;17.94;56.16;101309.19;4914307;29;20411;-79
2022/06/06 12:01:50;;;;;;;6.47;1.27;;;;;;;17.75;57.93;101312.63;4904570;29;20056;-79
2022/06/06 12:04:34;;;;;;;1.92;1.13;;;;;;;17.59;58.52;101323.16;4891551;29;20151;-78
2022/06/06 12:07:12;;;;;;;4.35;1.45;;;;;;;17.45;57.34;101306.81;4906797;29;20538;-79
2022/06/06 12:10:03;;;;;;;4.20;1.20;;;;;;;17.35;58.37;101311.69;4900437;29;20052;-79
2022/06/06 12:12:37;;;;;;;;;;;;;;;17.33;58.01;101310.91;4906775;29;20708;-79
2022/06/06 12:15:19;;;;;;;5.80;1.05;;;;;;;17.17;57.72;101299.09;4899129;29;19915;-79
2022/06/06 12:17:47;;;;;;;5.28;1.80;;;;;;;17.12;59.18;101304.63;4896699;29;20050;-79
2022/06/06 12:20:39;;;;;;;4.72;1.40;;;;;;;17.00;61.58;101323.88;4913055;29;20342;-79
2022/06/06 12:23:21;;;;;;;5.57;1.55;;;;;;;16.88;65.22;101327.03;4896655;29;20485;-80
2022/06/06 12:26:10;;;;;;;4.43;1.45;;;;;;;16.61;66.74;101318.28;4903448;29;20052;-80
2022/06/06 12:29:19;;;;;;;6.22;1.80;;;;;;;16.64;66.44;101310.13;4884286;29;20051;-81
2022/06/06 12:31:58;;;;;;;3.05;1.60;;;;;;;16.49;68.46;101311.59;4884817;29;20135;-82
2022/06/06 12:34:26;;;;;;;10.30;1.83;;;;;;;16.46;67.94;101306.38;4882176;29;20385;-83